Latest Weather Observations for Hughenden

IDQ60801

Issued at 4:32 pm EST Thursday 26 May 2016 (issued every 30 minutes, with the page automatically refreshed every 10 minutes)

About weather observations | Map of weather stations | Latest weather observations for QLD | Other Formats
Station Details ID: 030022 Name: HUGHENDEN AIRPORT Lat: -20.82 Lon: 144.23 Height: 316.4 m
Data from the previous 72 hours. | See also: Recent months at Hughenden
Date/Time
EST
Temp
°C
App
Temp
°C
Dew
Point
Rel
Hum
%
Delta-T
°C
Wind Press
QNH
hPa
Press
MSL
hPa
Rain
since 9 am
mm
Dir
 
Spd
km/h
Gust
km/h
Spd
kts
Gust
kts
26/04:30pm 32.4 29.7 11.6 28 12.4 WNW 17 20 9 11 1012.3 1011.1 0.0
26/04:00pm 32.5 29.6 11.1 27 12.6 WNW 17 26 9 14 1012.3 1011.1 0.0
26/03:30pm 31.6 28.7 10.9 28 12.1 WNW 17 24 9 13 1012.4 1011.2 0.0
26/03:00pm 33.0 30.6 11.5 27 12.8 WNW 15 26 8 14 1012.5 1011.3 0.0
26/02:30pm 32.0 29.0 10.7 27 12.5 WNW 17 26 9 14 1012.7 1011.5 0.0
26/02:00pm 32.0 29.9 11.2 28 12.3 NW 13 20 7 11 1013.2 1012.0 0.0
26/01:30pm 32.4 29.1 11.0 27 12.6 NW 19 30 10 16 1013.7 1012.4 0.0
26/01:00pm 31.7 28.8 11.0 28 12.1 WNW 17 24 9 13 1014.3 1013.1 0.0
26/12:30pm 31.6 29.1 10.9 28 12.1 WNW 15 26 8 14 1014.8 1013.6 0.0
26/12:00pm 31.6 29.4 10.9 28 12.1 WNW 13 20 7 11 1015.3 1014.1 0.0
26/11:30am 30.5 28.4 9.9 28 11.8 W 11 20 6 11 1015.9 1014.7 0.0
26/11:00am 30.4 28.4 11.4 31 11.1 NW 13 19 7 10 1016.4 1015.2 0.0
26/10:30am 29.2 28.2 12.2 35 10.1 NW 9 19 5 10 1016.8 1015.6 0.0
26/10:00am 28.4 27.9 15.0 44 8.2 N 11 20 6 11 1017.0 1015.8 0.0
26/09:30am 26.5 26.0 14.9 49 7.1 N 11 17 6 9 1016.9 1015.7 0.0
26/09:00am 25.2 24.7 15.8 56 5.8 NNE 13 19 7 10 1016.6 1015.4 0.0
26/08:30am 23.4 22.6 16.0 63 4.5 NNE 15 20 8 11 1016.3 1015.1 0.0
26/08:00am 22.1 21.5 15.7 67 3.9 NE 13 19 7 10 1016.1 1014.9 0.0
26/07:30am 20.7 20.0 15.5 72 3.1 NE 13 17 7 9 1015.9 1014.7 0.0
26/07:00am 19.8 18.7 15.2 75 2.7 NE 15 19 8 10 1015.6 1014.4 0.0
26/06:30am 19.8 18.7 15.2 75 2.7 NNE 15 19 8 10 1015.3 1014.1 0.0
26/06:00am 19.8 18.6 15.0 74 2.9 NE 15 19 8 10 1015.1 1013.9 0.0
26/05:30am 19.9 18.9 14.5 71 3.2 NE 13 17 7 9 1014.9 1013.7 0.0
26/05:00am 20.5 19.1 14.6 69 3.5 NE 15 19 8 10 1014.8 1013.6 0.0
26/04:30am 20.7 19.5 14.1 66 3.9 NE 13 17 7 9 1014.7 1013.5 0.0
26/04:00am 21.2 19.8 14.4 65 4.0 NE 15 20 8 11 1014.8 1013.6 0.0
26/03:30am 21.0 19.6 13.4 62 4.4 NE 13 17 7 9 1015.0 1013.8 0.0
26/03:00am 21.4 20.0 13.3 60 4.7 NE 13 15 7 8 1015.1 1013.9 0.0
26/02:30am 21.4 20.3 13.1 59 4.8 ENE 11 15 6 8 1015.3 1014.1 0.0
26/02:00am 22.0 21.1 12.5 54 5.5 NE 9 13 5 7 1015.5 1014.3 0.0
26/01:30am 23.1 20.8 13.0 53 5.9 NE 17 24 9 13 1015.4 1014.2 0.0
26/01:00am 22.4 21.1 12.4 53 5.8 NE 11 15 6 8 1015.6 1014.4 0.0
26/12:30am 21.5 19.7 12.1 55 5.4 ENE 13 15 7 8 1015.5 1014.3 0.0
26/12:00am 20.5 19.6 12.5 60 4.6 NE 9 11 5 6 1015.6 1014.4 0.0
 
Date/Time
EST
Temp
°C
App
Temp
°C
Dew
Point
Rel
Hum
%
Delta-T
°C
Wind Press
QNH
hPa
Press
MSL
hPa
Rain
since 9 am
mm
Dir
 
Spd
km/h
Gust
km/h
Spd
kts
Gust
kts
25/11:30pm 21.0 21.8 12.7 59 4.8 CALM 0 0 0 0 1015.7 1014.5 0.0
25/11:00pm 21.8 22.5 12.1 54 5.5 CALM 0 0 0 0 1015.6 1014.4 0.0
25/10:30pm 21.8 21.2 12.4 55 5.4 NW 7 9 4 5 1015.5 1014.3 0.0
25/10:00pm 22.8 21.7 11.8 50 6.3 ESE 9 11 5 6 1015.3 1014.1 0.0
25/09:30pm 23.5 22.6 11.2 46 7.0 ESE 7 9 4 5 1015.2 1014.0 0.0
25/09:00pm 24.9 22.8 11.1 42 7.9 E 13 15 7 8 1014.8 1013.6 0.0
25/08:30pm 24.8 23.9 11.4 43 7.7 E 7 11 4 6 1014.8 1013.6 0.0
25/08:00pm 24.8 23.0 11.0 42 7.8 ESE 11 15 6 8 1014.4 1013.2 0.0
25/07:30pm 25.8 24.7 10.8 39 8.5 ESE 7 11 4 6 1014.2 1013.0 0.0
25/07:00pm 27.4 25.9 10.6 35 9.6 NE 9 11 5 6 1013.9 1012.6 0.0
25/06:30pm 27.9 26.3 10.1 33 10.1 ENE 9 11 5 6 1013.5 1012.2 0.0
25/06:00pm 28.8 27.0 9.5 30 10.9 ENE 9 11 5 6 1013.0 1011.8 0.0
25/05:30pm 30.4 28.6 9.3 27 12.0 ENE 9 13 5 7 1012.8 1011.6 0.0
25/05:00pm 30.8 29.4 9.6 27 12.1 NNE 7 11 4 6 1012.7 1011.5 0.0
25/04:30pm 31.7 30.2 9.3 25 12.8 N 7 15 4 8 1012.7 1011.5 0.0
25/04:00pm 31.1 28.5 9.3 26 12.4 NNE 13 17 7 9 1012.6 1011.4 0.0
25/03:30pm 32.7 30.5 9.5 24 13.4 N 11 20 6 11 1012.4 1011.2 0.0
25/03:00pm 32.1 29.3 8.4 23 13.4 NNW 13 20 7 11 1012.7 1011.5 0.0
25/02:30pm 32.1 29.0 9.0 24 13.2 N 15 26 8 14 1013.0 1011.8 0.0
25/02:00pm 31.7 29.9 9.3 25 12.8 NNW 9 17 5 9 1013.5 1012.2 0.0
25/01:30pm 31.3 28.2 8.9 25 12.7 ENE 15 26 8 14 1014.0 1012.8 0.0
25/01:00pm 31.4 28.5 9.6 26 12.5 NE 15 24 8 13 1014.3 1013.1 0.0
25/12:30pm 30.7 27.3 9.0 26 12.3 E 17 26 9 14 1015.0 1013.8 0.0
25/12:00pm 30.6 26.9 9.5 27 12.0 ENE 19 26 10 14 1015.4 1014.2 0.0
25/11:30am 30.1 26.6 10.1 29 11.5 ENE 19 26 10 14 1015.8 1014.6 0.0
25/11:00am 29.9 26.1 9.9 29 11.4 NE 20 28 11 15 1016.3 1015.1 0.0
25/10:30am 28.1 24.2 9.4 31 10.5 NE 20 26 11 14 1016.8 1015.6 0.0
25/10:00am 27.4 24.0 9.3 32 10.1 ENE 17 24 9 13 1017.1 1015.9 0.0
25/09:30am 25.9 22.3 8.4 33 9.6 NE 17 20 9 11 1017.0 1015.8 0.0
25/09:00am 24.9 22.2 8.8 36 8.8 NE 13 17 7 9 1017.0 1015.8 0.2
25/08:30am 23.8 22.2 10.1 42 7.6 E 9 11 5 6 1016.6 1015.4 0.2
25/08:00am 21.8 20.9 11.5 52 5.8 SSE 7 9 4 5 1016.6 1015.4 0.2
25/07:30am 19.4 18.7 11.4 60 4.5 S 6 9 3 5 1016.4 1015.2 0.2
25/07:00am 20.8 19.1 10.0 50 5.9 ENE 9 13 5 7 1016.4 1015.2 0.2
25/06:30am 20.9 18.6 10.4 51 5.8 ENE 13 15 7 8 1016.2 1015.0 0.2
25/06:00am 20.2 18.5 11.1 56 5.1 NE 11 13 6 7 1015.9 1014.7 0.2
25/05:30am 18.7 17.5 11.5 63 4.0 E 9 11 5 6 1015.6 1014.4 0.2
25/05:00am 19.3 18.2 11.8 62 4.2 SE 9 11 5 6 1015.7 1014.5 0.2
25/04:30am 19.4 18.8 11.7 61 4.3 SE 6 7 3 4 1015.7 1014.5 0.2
25/04:00am 21.1 19.5 11.7 55 5.3 NE 11 15 6 8 1015.9 1014.7 0.2
25/03:30am 22.0 20.4 11.7 52 5.8 NE 11 13 6 7 1015.9 1014.7 0.2
25/03:00am 22.4 20.2 12.1 52 5.9 ENE 15 19 8 10 1015.7 1014.5 0.2
25/02:30am 21.6 20.3 12.5 56 5.2 ENE 11 15 6 8 1015.8 1014.6 0.2
25/02:00am 21.6 20.6 12.2 55 5.4 ENE 9 11 5 6 1016.2 1015.0 0.2
25/01:30am 22.6 21.5 12.0 51 6.1 ENE 9 13 5 7 1016.3 1015.1 0.2
25/01:00am 23.4 21.6 12.1 49 6.5 E 13 17 7 9 1016.4 1015.2 0.2
25/12:30am 23.7 21.4 11.7 47 6.9 E 15 20 8 11 1016.3 1015.1 0.2
25/12:00am 23.3 21.5 12.0 49 6.5 E 13 15 7 8 1017.0 1015.8 0.2
 
Date/Time
EST
Temp
°C
App
Temp
°C
Dew
Point
Rel
Hum
%
Delta-T
°C
Wind Press
QNH
hPa
Press
MSL
hPa
Rain
since 9 am
mm
Dir
 
Spd
km/h
Gust
km/h
Spd
kts
Gust
kts
24/11:30pm 23.4 22.3 11.8 48 6.6 ENE 9 13 5 7 1017.0 1015.8 0.2
24/11:00pm 23.3 22.1 11.7 48 6.6 E 9 13 5 7 1016.8 1015.6 0.2
24/10:30pm 23.6 22.3 11.3 46 7.0 E 9 11 5 6 1017.0 1015.8 0.2
24/10:00pm 24.4 22.9 10.7 42 7.7 ESE 9 13 5 7 1017.3 1016.1 0.2
24/09:30pm 25.2 23.2 10.3 39 8.4 ESE 11 13 6 7 1017.6 1016.4 0.2
24/09:00pm 25.4 23.1 10.4 39 8.5 ESE 13 19 7 10 1017.2 1016.0 0.2
24/08:30pm 25.7 23.0 10.3 38 8.7 ESE 15 17 8 9 1017.1 1015.9 0.2
24/08:00pm 26.0 23.3 10.2 37 8.9 SE 15 22 8 12 1016.8 1015.6 0.2
24/07:30pm 26.2 23.2 10.8 38 8.8 SE 17 22 9 12 1016.2 1015.0 0.2
24/07:00pm 26.8 24.5 10.5 36 9.3 ESE 13 17 7 9 1015.7 1014.5 0.2
24/06:30pm 27.1 25.3 10.8 36 9.3 ESE 11 15 6 8 1015.6 1014.4 0.2
24/06:00pm 27.3 25.3 10.1 34 9.7 ESE 11 17 6 9 1015.4 1014.2 0.2
24/05:30pm 28.2 25.4 9.9 32 10.4 ESE 15 19 8 10 1015.2 1014.0 0.2
24/05:00pm 29.0 25.5 8.7 28 11.3 ESE 17 24 9 13 1014.9 1013.7 0.2
24/04:30pm 29.3 25.5 8.9 28 11.4 E 19 22 10 12 1014.8 1013.6 0.2
24/04:00pm 30.2 27.2 9.1 27 11.9 E 15 24 8 13 1014.9 1013.7 0.2
24/03:30pm 29.9 26.3 8.3 26 12.0 E 17 24 9 13 1014.9 1013.7 0.2
24/03:00pm 29.9 26.7 8.3 26 12.0 E 15 24 8 13 1014.9 1013.7 0.2
24/02:30pm 30.2 26.1 8.6 26 12.1 ENE 20 32 11 17 1014.9 1013.7 0.2
24/02:00pm 30.3 28.0 10.3 29 11.5 E 13 20 7 11 1015.0 1013.8 0.2
24/01:30pm 29.8 26.4 10.4 30 11.2 E 19 28 10 15 1015.4 1014.2 0.2
24/01:00pm 29.2 25.7 10.3 31 10.8 ENE 19 26 10 14 1016.0 1014.8 0.2
24/12:30pm 29.2 25.9 10.8 32 10.6 E 19 26 10 14 1016.5 1015.3 0.2
24/12:00pm 28.2 24.9 10.9 34 10.0 E 19 26 10 14 1017.1 1015.9 0.2
24/11:30am 27.5 25.9 13.8 43 8.3 E 15 22 8 12 1017.7 1016.5 0.2
24/11:00am 26.7 24.0 13.4 43 7.9 E 20 26 11 14 1018.0 1016.8 0.2
24/10:30am 25.5 23.3 14.9 52 6.4 ENE 20 30 11 16 1018.3 1017.1 0.2
24/10:00am 24.8 22.4 15.4 56 5.7 E 22 30 12 16 1018.6 1017.4 0.0
24/09:30am 24.0 22.5 16.8 64 4.5 E 20 28 11 15 1018.5 1017.3 0.0
24/09:00am 23.2 21.8 16.5 66 4.1 E 19 24 10 13 1018.5 1017.3 0.8
24/08:30am 22.1 22.1 17.2 74 3.1 E 13 19 7 10 1018.4 1017.2 0.8
24/08:00am 20.5 20.4 16.9 80 2.2 ESE 13 17 7 9 1018.2 1017.0 0.8
24/07:30am 19.9 19.8 16.9 83 1.8 ESE 13 15 7 8 1018.2 1017.0 0.8
24/07:00am 19.5 19.8 16.9 85 1.6 ESE 11 13 6 7 1018.0 1016.8 0.8
24/06:30am 19.3 19.9 16.7 85 1.6 ESE 9 11 5 6 1017.7 1016.5 0.8
24/06:00am 19.6 20.2 16.8 84 1.7 E 9 11 5 6 1017.3 1016.1 0.8
24/05:30am 19.7 19.9 16.7 83 1.8 E 11 13 6 7 1016.8 1015.6 0.8
24/05:00am 20.0 19.9 17.0 83 1.8 ESE 13 15 7 8 1016.5 1015.3 0.8
24/04:30am 20.3 21.0 17.1 82 2.0 ESE 9 11 5 6 1016.9 1015.7 0.8
24/04:00am 20.5 20.5 17.1 81 2.1 ENE 13 17 7 9 1017.1 1015.9 0.8
24/03:30am 20.6 20.9 17.0 80 2.2 E 11 15 6 8 1017.2 1016.0 0.8
24/03:00am 20.6 20.2 17.2 81 2.1 E 15 20 8 11 1017.4 1016.2 0.8
24/02:30am 20.6 20.7 17.4 82 2.0 E 13 17 7 9 1017.9 1016.7 0.8
24/02:00am 20.5 21.0 17.5 83 1.9 E 11 15 6 8 1018.2 1017.0 0.8
24/01:30am 20.5 20.6 17.5 83 1.9 E 13 17 7 9 1018.3 1017.1 0.8
24/01:00am 20.5 20.7 17.7 84 1.7 E 13 17 7 9 1018.6 1017.4 0.8
24/12:30am 20.4 21.0 17.6 84 1.7 ESE 11 15 6 8 1018.9 1017.7 0.8
24/12:00am 20.5 20.7 17.7 84 1.7 E 13 17 7 9 1018.9 1017.7 0.8
 
Date/Time
EST
Temp
°C
App
Temp
°C
Dew
Point
Rel
Hum
%
Delta-T
°C
Wind Press
QNH
hPa
Press
MSL
hPa
Rain
since 9 am
mm
Dir
 
Spd
km/h
Gust
km/h
Spd
kts
Gust
kts
23/11:30pm 20.4 20.7 17.8 85 1.6 ESE 13 19 7 10 1019.1 1017.9 0.8
23/11:00pm 20.2 20.5 17.8 86 1.5 ESE 13 17 7 9 1019.2 1018.0 0.8
23/10:30pm 20.2 20.8 17.6 85 1.6 ESE 11 15 6 8 1019.5 1018.4 0.8
23/10:00pm 20.4 21.4 17.8 85 1.6 ESE 9 13 5 7 1019.5 1018.4 0.8
23/09:30pm 20.6 21.2 17.8 84 1.8 SE 11 13 6 7 1019.4 1018.2 0.6
23/09:00pm 20.7 21.3 17.7 83 1.9 SE 11 15 6 8 1019.3 1018.1 0.6
23/08:30pm 20.8 21.1 17.8 83 1.9 SSE 13 19 7 10 1019.1 1017.9 0.6
23/08:00pm 20.9 20.7 17.7 82 2.0 SSE 15 19 8 10 1019.0 1017.8 0.6
23/07:30pm 21.0 20.7 17.4 80 2.2 SSE 15 19 8 10 1018.8 1017.6 0.6
23/07:00pm 21.2 21.0 17.6 80 2.2 SSE 15 19 8 10 1018.6 1017.4 0.6
23/06:30pm 21.8 21.9 17.4 76 2.7 SE 13 17 7 9 1018.3 1017.1 0.6
23/06:00pm 21.9 21.9 17.3 75 2.9 SE 13 17 7 9 1017.8 1016.6 0.6
23/05:30pm 22.2 22.9 17.1 73 3.2 SSE 9 11 5 6 1017.8 1016.6 0.6
23/05:00pm 22.6 22.5 16.9 70 3.5 ESE 13 19 7 10 1017.3 1016.1 0.6

Other Formats:

Comma delimited format used in spreadsheet applications
http://www.bom.gov.au/fwo/IDQ60801/IDQ60801.94343.axf

JavaScript Object Notation format (JSON) in row-major order
http://www.bom.gov.au/fwo/IDQ60801/IDQ60801.94343.json